• Join FlightAware (Why Join?)
  • Login
  • US Flag 
08:13PM EDT


 

Airport Tracker/Info


-or-


 

Live Flight TrackerFlight Track Log ✈ N700U ✈ 20-Jul-2013 ✈ KBKL - KUNI

Flight Track Log - Related Links

Times and Time Zones

All times are in EDT time to prevent confusion due to time zone crossing. See the N700U flight status page for this flight to view local times or setup timezone preferences in your user account.

Time Position Orientation Groundspeed Altitude Reporting Facility
EDT Latitude Longitude Course Direction KTS MPH feet Rate Location/Type
05:36PM 41.5083 -81.7061 322° Northwest 169 194 1,200  Level Cleveland Center
05:37PM 41.5642 -81.7653 322° Northwest 222 255 2,300 1,200 Climbing Cleveland Center
05:38PM 41.5575 -81.7958 254° West 213 245 3,600 2,580 Climbing Cleveland Center
05:39PM 41.5153 -81.8311 212° Southwest 191 220 6,300 2,580 Climbing Cleveland Center
05:40PM 41.4633 -81.8217 172° South 167 192 8,800 2,160 Climbing Cleveland Center
05:41PM 41.4111 -81.8372 193° South 179 206 10,700 1,080 Climbing Cleveland Center
05:42PM 41.3586 -81.8639 201° Southwest 200 230 11,000 120 Climbing Cleveland Center
05:43PM 41.2897 -81.8903 196° South 234 269 11,000  Level Cleveland Center
05:44PM 41.2225 -81.9164 196° South 253 291 11,000 60 Level Cleveland Center
05:45PM 41.1514 -81.9453 197° South 263 303 11,200 1,020 Climbing Cleveland Center
05:46PM 41.0739 -81.9631 190° South 268 308 13,100 1,380 Climbing Cleveland Center
05:47PM 41.0092 -81.9700 185° South 244 281 14,000 420 Climbing Cleveland Center
05:48PM 40.9383 -81.9794 186° South 249 287 14,000  Level Cleveland Center
05:49PM 40.8589 -81.9914 186° South 273 314 14,000  Level Cleveland Center
05:50PM 40.7794 -82.0036 187° South 288 331 14,000  Level Cleveland Center
05:52PM 40.6231 -82.0250 186° South 288 331 14,000  Level Indianapolis Center
05:53PM 40.5439 -82.0375 187° South 286 329 14,000  Level Indianapolis Center
05:54PM 40.4636 -82.0497 187° South 287 330 14,000  Level Indianapolis Center
05:55PM 40.3831 -82.0617 186° South 288 331 14,000  Level Indianapolis Center
05:56PM 40.3025 -82.0733 186° South 290 334 14,000  Level Indianapolis Center
05:57PM 40.2267 -82.0850 187° South 286 329 14,000 -480 Level Indianapolis Center
05:58PM 40.1425 -82.0964 186° South 297 342 13,100 -840 Descending Indianapolis Center
05:59PM 40.0575 -82.1086 186° South 304 350 12,400 -780 Descending Indianapolis Center
06:00PM 39.9722 -82.1211 186° South 303 349 11,600 -840 Descending Indianapolis Center
06:01PM 39.8878 -82.1336 186° South 303 349 10,800 -840 Descending Indianapolis Center
06:02PM 39.8036 -82.1453 186° South 301 346 10,000 -840 Descending Indianapolis Center
06:03PM 39.7203 -82.1581 187° South 298 343 9,100 -600 Descending Indianapolis Center
06:04PM 39.6375 -82.1550 178° South 295 339 8,800 -600 Descending Indianapolis Center
06:05PM 39.5608 -82.1617 184° South 274 315 7,900 -1,140 Descending Indianapolis Center
06:06PM 39.4903 -82.1778 190° South 258 297 6,500 -1,380 Descending Indianapolis Center